sensor_id;sensor_type;location;lat;lon;timestamp;P1;durP1;ratioP1;P2;durP2;ratioP2
14235;SDS011;7202;50.718;7.072;2023-03-01T00:00:25;11.73;;;7.83;;
14235;SDS011;7202;50.718;7.072;2023-03-01T00:02:55;14.73;;;8.60;;
14235;SDS011;7202;50.718;7.072;2023-03-01T00:05:25;12.27;;;8.60;;
14235;SDS011;7202;50.718;7.072;2023-03-01T00:07:54;13.00;;;8.47;;
14235;SDS011;7202;50.718;7.072;2023-03-01T00:10:24;13.47;;;8.73;;
14235;SDS011;7202;50.718;7.072;2023-03-01T00:12:53;14.83;;;9.10;;
14235;SDS011;7202;50.718;7.072;2023-03-01T00:15:23;13.27;;;8.83;;
14235;SDS011;7202;50.718;7.072;2023-03-01T00:17:52;15.60;;;9.63;;
14235;SDS011;7202;50.718;7.072;2023-03-01T00:20:22;15.33;;;9.60;;
14235;SDS011;7202;50.718;7.072;2023-03-01T00:22:51;14.40;;;9.07;;
14235;SDS011;7202;50.718;7.072;2023-03-01T00:25:20;12.90;;;9.00;;
14235;SDS011;7202;50.718;7.072;2023-03-01T00:27:50;15.13;;;9.30;;
14235;SDS011;7202;50.718;7.072;2023-03-01T00:30:19;12.07;;;8.60;;
14235;SDS011;7202;50.718;7.072;2023-03-01T00:32:49;12.30;;;8.53;;
14235;SDS011;7202;50.718;7.072;2023-03-01T00:35:17;12.63;;;7.63;;
14235;SDS011;7202;50.718;7.072;2023-03-01T00:37:48;11.43;;;7.50;;
14235;SDS011;7202;50.718;7.072;2023-03-01T00:40:25;11.33;;;7.60;;
14235;SDS011;7202;50.718;7.072;2023-03-01T00:42:55;9.57;;;7.13;;
14235;SDS011;7202;50.718;7.072;2023-03-01T00:45:24;10.90;;;7.40;;
14235;SDS011;7202;50.718;7.072;2023-03-01T00:47:53;10.43;;;7.37;;
14235;SDS011;7202;50.718;7.072;2023-03-01T00:50:26;10.40;;;7.13;;
14235;SDS011;7202;50.718;7.072;2023-03-01T00:52:56;11.30;;;8.50;;
14235;SDS011;7202;50.718;7.072;2023-03-01T00:55:28;15.87;;;9.23;;
14235;SDS011;7202;50.718;7.072;2023-03-01T00:58:00;14.53;;;9.83;;
14235;SDS011;7202;50.718;7.072;2023-03-01T01:00:29;13.30;;;9.03;;
14235;SDS011;7202;50.718;7.072;2023-03-01T01:03:00;14.57;;;9.57;;
14235;SDS011;7202;50.718;7.072;2023-03-01T01:05:30;15.60;;;10.13;;
14235;SDS011;7202;50.718;7.072;2023-03-01T01:08:01;14.40;;;10.03;;
14235;SDS011;7202;50.718;7.072;2023-03-01T01:10:32;15.30;;;9.87;;
14235;SDS011;7202;50.718;7.072;2023-03-01T01:13:02;16.03;;;10.83;;
14235;SDS011;7202;50.718;7.072;2023-03-01T01:15:32;17.00;;;11.47;;
14235;SDS011;7202;50.718;7.072;2023-03-01T01:18:04;17.40;;;10.17;;
14235;SDS011;7202;50.718;7.072;2023-03-01T01:20:34;16.17;;;10.67;;
14235;SDS011;7202;50.718;7.072;2023-03-01T01:23:06;15.53;;;9.87;;
14235;SDS011;7202;50.718;7.072;2023-03-01T01:25:35;17.83;;;11.00;;
14235;SDS011;7202;50.718;7.072;2023-03-01T01:28:07;14.50;;;10.10;;
14235;SDS011;7202;50.718;7.072;2023-03-01T01:30:36;15.70;;;9.67;;
14235;SDS011;7202;50.718;7.072;2023-03-01T01:33:06;14.87;;;9.73;;
14235;SDS011;7202;50.718;7.072;2023-03-01T01:35:35;14.47;;;8.87;;
14235;SDS011;7202;50.718;7.072;2023-03-01T01:38:04;16.30;;;8.73;;
14235;SDS011;7202;50.718;7.072;2023-03-01T01:40:42;13.83;;;9.47;;
14235;SDS011;7202;50.718;7.072;2023-03-01T01:43:14;13.17;;;8.80;;
14235;SDS011;7202;50.718;7.072;2023-03-01T01:45:47;14.17;;;8.73;;
14235;SDS011;7202;50.718;7.072;2023-03-01T01:48:19;16.07;;;9.80;;
14235;SDS011;7202;50.718;7.072;2023-03-01T01:50:52;16.47;;;10.13;;
14235;SDS011;7202;50.718;7.072;2023-03-01T01:53:29;15.40;;;9.67;;
14235;SDS011;7202;50.718;7.072;2023-03-01T01:55:59;15.83;;;9.67;;
14235;SDS011;7202;50.718;7.072;2023-03-01T01:58:30;14.97;;;9.43;;
14235;SDS011;7202;50.718;7.072;2023-03-01T02:00:59;15.90;;;8.57;;
14235;SDS011;7202;50.718;7.072;2023-03-01T02:03:31;16.53;;;10.03;;
14235;SDS011;7202;50.718;7.072;2023-03-01T02:06:06;17.53;;;10.67;;
14235;SDS011;7202;50.718;7.072;2023-03-01T02:08:42;13.17;;;9.47;;
14235;SDS011;7202;50.718;7.072;2023-03-01T02:11:14;12.90;;;9.03;;
14235;SDS011;7202;50.718;7.072;2023-03-01T02:13:43;13.57;;;9.50;;
14235;SDS011;7202;50.718;7.072;2023-03-01T02:16:15;13.07;;;8.93;;
14235;SDS011;7202;50.718;7.072;2023-03-01T02:18:47;14.03;;;8.53;;
14235;SDS011;7202;50.718;7.072;2023-03-01T02:21:22;13.63;;;8.70;;
14235;SDS011;7202;50.718;7.072;2023-03-01T02:24:02;15.43;;;9.20;;
14235;SDS011;7202;50.718;7.072;2023-03-01T02:26:41;14.07;;;9.57;;
14235;SDS011;7202;50.718;7.072;2023-03-01T02:29:17;12.97;;;8.53;;
14235;SDS011;7202;50.718;7.072;2023-03-01T02:31:46;13.73;;;8.20;;
14235;SDS011;7202;50.718;7.072;2023-03-01T02:34:15;11.27;;;8.47;;
14235;SDS011;7202;50.718;7.072;2023-03-01T02:36:47;16.07;;;9.73;;
14235;SDS011;7202;50.718;7.072;2023-03-01T02:39:19;15.87;;;9.83;;
14235;SDS011;7202;50.718;7.072;2023-03-01T02:41:54;15.17;;;8.90;;
14235;SDS011;7202;50.718;7.072;2023-03-01T02:44:29;14.83;;;9.30;;
14235;SDS011;7202;50.718;7.072;2023-03-01T02:46:59;12.90;;;8.80;;
14235;SDS011;7202;50.718;7.072;2023-03-01T02:49:32;13.60;;;9.20;;
14235;SDS011;7202;50.718;7.072;2023-03-01T02:52:10;12.63;;;8.57;;
14235;SDS011;7202;50.718;7.072;2023-03-01T02:54:48;15.47;;;9.47;;
14235;SDS011;7202;50.718;7.072;2023-03-01T02:57:27;12.70;;;8.57;;
14235;SDS011;7202;50.718;7.072;2023-03-01T03:00:02;14.13;;;9.80;;
14235;SDS011;7202;50.718;7.072;2023-03-01T03:02:37;15.10;;;8.93;;
14235;SDS011;7202;50.718;7.072;2023-03-01T03:05:21;15.70;;;8.80;;
14235;SDS011;7202;50.718;7.072;2023-03-01T03:07:55;14.40;;;9.27;;
14235;SDS011;7202;50.718;7.072;2023-03-01T03:10:27;16.03;;;9.73;;
14235;SDS011;7202;50.718;7.072;2023-03-01T03:12:59;14.03;;;8.87;;
14235;SDS011;7202;50.718;7.072;2023-03-01T03:15:31;12.53;;;8.67;;
14235;SDS011;7202;50.718;7.072;2023-03-01T03:18:03;15.53;;;9.23;;
14235;SDS011;7202;50.718;7.072;2023-03-01T03:20:33;12.23;;;8.17;;
14235;SDS011;7202;50.718;7.072;2023-03-01T03:23:04;12.50;;;8.20;;
14235;SDS011;7202;50.718;7.072;2023-03-01T03:25:34;12.83;;;8.07;;
14235;SDS011;7202;50.718;7.072;2023-03-01T03:28:05;15.53;;;9.70;;
14235;SDS011;7202;50.718;7.072;2023-03-01T03:30:39;13.50;;;8.43;;
14235;SDS011;7202;50.718;7.072;2023-03-01T03:33:09;18.07;;;9.77;;
14235;SDS011;7202;50.718;7.072;2023-03-01T03:35:41;14.50;;;9.13;;
14235;SDS011;7202;50.718;7.072;2023-03-01T03:38:14;13.47;;;8.30;;
14235;SDS011;7202;50.718;7.072;2023-03-01T03:40:47;14.13;;;9.00;;
14235;SDS011;7202;50.718;7.072;2023-03-01T03:43:18;15.03;;;9.10;;
14235;SDS011;7202;50.718;7.072;2023-03-01T03:45:50;12.67;;;8.70;;
14235;SDS011;7202;50.718;7.072;2023-03-01T03:48:20;13.03;;;9.30;;
14235;SDS011;7202;50.718;7.072;2023-03-01T03:50:51;15.50;;;9.07;;
14235;SDS011;7202;50.718;7.072;2023-03-01T03:53:24;13.80;;;9.50;;
14235;SDS011;7202;50.718;7.072;2023-03-01T03:55:55;14.37;;;8.87;;
14235;SDS011;7202;50.718;7.072;2023-03-01T03:58:26;15.00;;;9.17;;
14235;SDS011;7202;50.718;7.072;2023-03-01T04:00:57;16.90;;;9.97;;
14235;SDS011;7202;50.718;7.072;2023-03-01T04:03:28;16.17;;;10.17;;
14235;SDS011;7202;50.718;7.072;2023-03-01T04:05:59;15.17;;;9.33;;
14235;SDS011;7202;50.718;7.072;2023-03-01T04:08:29;17.37;;;9.93;;
14235;SDS011;7202;50.718;7.072;2023-03-01T04:10:59;17.63;;;9.53;;
14235;SDS011;7202;50.718;7.072;2023-03-01T04:13:51;15.70;;;9.40;;
14235;SDS011;7202;50.718;7.072;2023-03-01T04:16:29;16.43;;;9.47;;
14235;SDS011;7202;50.718;7.072;2023-03-01T04:18:59;17.50;;;9.53;;
14235;SDS011;7202;50.718;7.072;2023-03-01T04:21:28;14.03;;;9.43;;
14235;SDS011;7202;50.718;7.072;2023-03-01T04:23:59;16.40;;;9.67;;
14235;SDS011;7202;50.718;7.072;2023-03-01T04:26:35;13.67;;;9.00;;
14235;SDS011;7202;50.718;7.072;2023-03-01T04:29:08;12.03;;;8.70;;
14235;SDS011;7202;50.718;7.072;2023-03-01T04:31:40;14.23;;;8.93;;
14235;SDS011;7202;50.718;7.072;2023-03-01T04:34:09;18.77;;;10.10;;
14235;SDS011;7202;50.718;7.072;2023-03-01T04:36:42;17.50;;;9.27;;
14235;SDS011;7202;50.718;7.072;2023-03-01T04:39:11;13.83;;;9.40;;
14235;SDS011;7202;50.718;7.072;2023-03-01T04:41:42;14.70;;;9.83;;
14235;SDS011;7202;50.718;7.072;2023-03-01T04:44:32;20.70;;;11.33;;
14235;SDS011;7202;50.718;7.072;2023-03-01T04:47:03;16.60;;;10.50;;
14235;SDS011;7202;50.718;7.072;2023-03-01T04:49:35;17.20;;;10.47;;
14235;SDS011;7202;50.718;7.072;2023-03-01T04:52:04;14.63;;;10.23;;
14235;SDS011;7202;50.718;7.072;2023-03-01T04:54:40;18.57;;;10.33;;
14235;SDS011;7202;50.718;7.072;2023-03-01T04:57:10;16.20;;;10.37;;
14235;SDS011;7202;50.718;7.072;2023-03-01T04:59:38;16.23;;;10.07;;
14235;SDS011;7202;50.718;7.072;2023-03-01T05:02:09;14.37;;;9.73;;
14235;SDS011;7202;50.718;7.072;2023-03-01T05:04:38;16.20;;;9.77;;
14235;SDS011;7202;50.718;7.072;2023-03-01T05:07:07;14.80;;;9.87;;
14235;SDS011;7202;50.718;7.072;2023-03-01T05:09:38;15.60;;;10.17;;
14235;SDS011;7202;50.718;7.072;2023-03-01T05:12:10;15.53;;;9.93;;
14235;SDS011;7202;50.718;7.072;2023-03-01T05:14:39;16.77;;;9.70;;
14235;SDS011;7202;50.718;7.072;2023-03-01T05:17:10;19.13;;;10.33;;
14235;SDS011;7202;50.718;7.072;2023-03-01T05:19:43;16.63;;;10.17;;
14235;SDS011;7202;50.718;7.072;2023-03-01T05:22:13;16.63;;;10.03;;
14235;SDS011;7202;50.718;7.072;2023-03-01T05:24:42;17.27;;;10.27;;
14235;SDS011;7202;50.718;7.072;2023-03-01T05:27:11;15.13;;;9.80;;
14235;SDS011;7202;50.718;7.072;2023-03-01T05:29:41;16.27;;;9.97;;
14235;SDS011;7202;50.718;7.072;2023-03-01T05:32:13;15.20;;;10.47;;
14235;SDS011;7202;50.718;7.072;2023-03-01T05:34:43;15.77;;;10.30;;
14235;SDS011;7202;50.718;7.072;2023-03-01T05:37:13;14.43;;;9.40;;
14235;SDS011;7202;50.718;7.072;2023-03-01T05:39:45;15.13;;;8.97;;
14235;SDS011;7202;50.718;7.072;2023-03-01T05:42:17;16.53;;;10.70;;
14235;SDS011;7202;50.718;7.072;2023-03-01T05:44:46;15.20;;;10.43;;
14235;SDS011;7202;50.718;7.072;2023-03-01T05:47:16;17.03;;;9.80;;
14235;SDS011;7202;50.718;7.072;2023-03-01T05:49:48;18.03;;;10.60;;
14235;SDS011;7202;50.718;7.072;2023-03-01T05:52:17;19.27;;;11.07;;
14235;SDS011;7202;50.718;7.072;2023-03-01T05:54:47;16.97;;;10.53;;
14235;SDS011;7202;50.718;7.072;2023-03-01T05:57:16;17.80;;;10.67;;
14235;SDS011;7202;50.718;7.072;2023-03-01T05:59:45;17.93;;;10.87;;
14235;SDS011;7202;50.718;7.072;2023-03-01T06:02:13;16.60;;;10.30;;
14235;SDS011;7202;50.718;7.072;2023-03-01T06:04:44;20.50;;;10.87;;
14235;SDS011;7202;50.718;7.072;2023-03-01T06:07:16;15.97;;;10.57;;
14235;SDS011;7202;50.718;7.072;2023-03-01T06:09:48;17.53;;;9.73;;
14235;SDS011;7202;50.718;7.072;2023-03-01T06:12:17;19.90;;;10.40;;
14235;SDS011;7202;50.718;7.072;2023-03-01T06:14:46;15.43;;;9.93;;
14235;SDS011;7202;50.718;7.072;2023-03-01T06:17:15;14.63;;;9.70;;
14235;SDS011;7202;50.718;7.072;2023-03-01T06:19:45;15.13;;;9.17;;
14235;SDS011;7202;50.718;7.072;2023-03-01T06:22:14;18.43;;;10.40;;
14235;SDS011;7202;50.718;7.072;2023-03-01T06:24:43;15.70;;;9.87;;
14235;SDS011;7202;50.718;7.072;2023-03-01T06:27:15;17.10;;;10.53;;
14235;SDS011;7202;50.718;7.072;2023-03-01T06:29:44;17.23;;;9.53;;
14235;SDS011;7202;50.718;7.072;2023-03-01T06:32:12;16.97;;;10.10;;
14235;SDS011;7202;50.718;7.072;2023-03-01T06:34:42;17.57;;;10.40;;
14235;SDS011;7202;50.718;7.072;2023-03-01T06:37:12;20.90;;;10.77;;
14235;SDS011;7202;50.718;7.072;2023-03-01T06:39:41;13.47;;;9.23;;
14235;SDS011;7202;50.718;7.072;2023-03-01T06:42:10;20.53;;;10.90;;
14235;SDS011;7202;50.718;7.072;2023-03-01T06:44:44;17.40;;;10.83;;
14235;SDS011;7202;50.718;7.072;2023-03-01T06:47:14;15.80;;;10.23;;
14235;SDS011;7202;50.718;7.072;2023-03-01T06:49:43;17.40;;;11.23;;
14235;SDS011;7202;50.718;7.072;2023-03-01T06:52:16;18.83;;;11.40;;
14235;SDS011;7202;50.718;7.072;2023-03-01T06:54:45;23.50;;;11.17;;
14235;SDS011;7202;50.718;7.072;2023-03-01T06:57:14;21.43;;;10.97;;
14235;SDS011;7202;50.718;7.072;2023-03-01T06:59:43;20.90;;;11.93;;
14235;SDS011;7202;50.718;7.072;2023-03-01T07:02:13;19.27;;;10.77;;
14235;SDS011;7202;50.718;7.072;2023-03-01T07:04:42;18.67;;;11.33;;
14235;SDS011;7202;50.718;7.072;2023-03-01T07:07:12;18.67;;;11.77;;
14235;SDS011;7202;50.718;7.072;2023-03-01T07:09:42;17.97;;;11.07;;
14235;SDS011;7202;50.718;7.072;2023-03-01T07:12:11;18.93;;;11.20;;
14235;SDS011;7202;50.718;7.072;2023-03-01T07:14:40;18.10;;;11.07;;
14235;SDS011;7202;50.718;7.072;2023-03-01T07:17:09;19.33;;;11.80;;
14235;SDS011;7202;50.718;7.072;2023-03-01T07:19:38;16.30;;;11.60;;
14235;SDS011;7202;50.718;7.072;2023-03-01T07:22:07;18.57;;;12.27;;
14235;SDS011;7202;50.718;7.072;2023-03-01T07:24:36;17.00;;;11.83;;
14235;SDS011;7202;50.718;7.072;2023-03-01T07:27:06;25.07;;;12.83;;
14235;SDS011;7202;50.718;7.072;2023-03-01T07:29:35;21.60;;;12.90;;
14235;SDS011;7202;50.718;7.072;2023-03-01T07:32:04;21.33;;;12.93;;
14235;SDS011;7202;50.718;7.072;2023-03-01T07:34:34;21.03;;;13.87;;
14235;SDS011;7202;50.718;7.072;2023-03-01T07:37:03;24.00;;;13.17;;
14235;SDS011;7202;50.718;7.072;2023-03-01T07:39:32;21.50;;;12.40;;
14235;SDS011;7202;50.718;7.072;2023-03-01T07:42:01;19.53;;;12.17;;
14235;SDS011;7202;50.718;7.072;2023-03-01T07:44:31;17.43;;;11.13;;
14235;SDS011;7202;50.718;7.072;2023-03-01T07:47:02;22.23;;;13.10;;
14235;SDS011;7202;50.718;7.072;2023-03-01T07:49:31;19.80;;;12.10;;
14235;SDS011;7202;50.718;7.072;2023-03-01T07:52:00;21.50;;;11.70;;
14235;SDS011;7202;50.718;7.072;2023-03-01T07:54:29;23.80;;;12.57;;
14235;SDS011;7202;50.718;7.072;2023-03-01T07:56:57;20.20;;;11.00;;
14235;SDS011;7202;50.718;7.072;2023-03-01T07:59:26;24.30;;;12.87;;
14235;SDS011;7202;50.718;7.072;2023-03-01T08:02:02;21.80;;;12.63;;
14235;SDS011;7202;50.718;7.072;2023-03-01T08:04:31;18.00;;;11.60;;
14235;SDS011;7202;50.718;7.072;2023-03-01T08:07:04;21.30;;;12.60;;
14235;SDS011;7202;50.718;7.072;2023-03-01T08:09:34;20.30;;;12.13;;
14235;SDS011;7202;50.718;7.072;2023-03-01T08:12:05;23.47;;;12.87;;
14235;SDS011;7202;50.718;7.072;2023-03-01T08:14:46;22.03;;;12.10;;
14235;SDS011;7202;50.718;7.072;2023-03-01T08:17:17;18.00;;;12.53;;
14235;SDS011;7202;50.718;7.072;2023-03-01T08:19:48;20.97;;;13.07;;
14235;SDS011;7202;50.718;7.072;2023-03-01T08:22:17;24.37;;;13.30;;
14235;SDS011;7202;50.718;7.072;2023-03-01T08:24:48;21.60;;;13.30;;
14235;SDS011;7202;50.718;7.072;2023-03-01T08:27:17;20.13;;;12.20;;
14235;SDS011;7202;50.718;7.072;2023-03-01T08:29:48;20.83;;;13.50;;
14235;SDS011;7202;50.718;7.072;2023-03-01T08:32:20;17.37;;;12.17;;
14235;SDS011;7202;50.718;7.072;2023-03-01T08:34:49;21.80;;;13.33;;
14235;SDS011;7202;50.718;7.072;2023-03-01T08:37:24;18.57;;;11.90;;
14235;SDS011;7202;50.718;7.072;2023-03-01T08:39:57;21.43;;;13.27;;
14235;SDS011;7202;50.718;7.072;2023-03-01T08:42:35;23.27;;;13.30;;
14235;SDS011;7202;50.718;7.072;2023-03-01T08:45:07;23.03;;;13.67;;
14235;SDS011;7202;50.718;7.072;2023-03-01T08:47:42;23.43;;;13.67;;
14235;SDS011;7202;50.718;7.072;2023-03-01T08:50:12;22.70;;;13.90;;
14235;SDS011;7202;50.718;7.072;2023-03-01T08:52:49;23.20;;;14.23;;
14235;SDS011;7202;50.718;7.072;2023-03-01T08:55:26;20.43;;;13.97;;
14235;SDS011;7202;50.718;7.072;2023-03-01T08:57:56;22.03;;;15.13;;
14235;SDS011;7202;50.718;7.072;2023-03-01T09:00:36;21.87;;;14.90;;
14235;SDS011;7202;50.718;7.072;2023-03-01T09:03:15;23.20;;;14.53;;
14235;SDS011;7202;50.718;7.072;2023-03-01T09:05:46;23.83;;;15.03;;
14235;SDS011;7202;50.718;7.072;2023-03-01T09:08:18;22.13;;;14.80;;
14235;SDS011;7202;50.718;7.072;2023-03-01T09:11:07;24.07;;;14.63;;
14235;SDS011;7202;50.718;7.072;2023-03-01T09:13:39;25.57;;;14.57;;
14235;SDS011;7202;50.718;7.072;2023-03-01T09:16:20;23.40;;;15.77;;
14235;SDS011;7202;50.718;7.072;2023-03-01T09:19:14;24.00;;;15.53;;
14235;SDS011;7202;50.718;7.072;2023-03-01T09:21:49;22.47;;;14.67;;
14235;SDS011;7202;50.718;7.072;2023-03-01T09:24:22;25.87;;;15.77;;
14235;SDS011;7202;50.718;7.072;2023-03-01T09:26:53;24.87;;;15.40;;
14235;SDS011;7202;50.718;7.072;2023-03-01T09:29:43;26.83;;;15.53;;
14235;SDS011;7202;50.718;7.072;2023-03-01T09:32:15;20.30;;;14.13;;
14235;SDS011;7202;50.718;7.072;2023-03-01T09:34:51;25.87;;;14.90;;
14235;SDS011;7202;50.718;7.072;2023-03-01T09:37:45;25.10;;;14.97;;
14235;SDS011;7202;50.718;7.072;2023-03-01T09:40:36;22.90;;;14.70;;
14235;SDS011;7202;50.718;7.072;2023-03-01T09:43:26;24.33;;;15.13;;
14235;SDS011;7202;50.718;7.072;2023-03-01T09:46:04;24.13;;;14.87;;
14235;SDS011;7202;50.718;7.072;2023-03-01T09:49:17;25.17;;;12.93;;
14235;SDS011;7202;50.718;7.072;2023-03-01T09:52:36;19.70;;;13.03;;
14235;SDS011;7202;50.718;7.072;2023-03-01T09:55:48;24.27;;;13.33;;
14235;SDS011;7202;50.718;7.072;2023-03-01T09:58:53;22.57;;;14.37;;
14235;SDS011;7202;50.718;7.072;2023-03-01T10:01:30;23.90;;;13.93;;
14235;SDS011;7202;50.718;7.072;2023-03-01T10:04:38;21.33;;;13.70;;
14235;SDS011;7202;50.718;7.072;2023-03-01T10:07:20;20.10;;;12.90;;
14235;SDS011;7202;50.718;7.072;2023-03-01T10:09:58;19.43;;;12.10;;
14235;SDS011;7202;50.718;7.072;2023-03-01T10:12:33;20.57;;;12.43;;
14235;SDS011;7202;50.718;7.072;2023-03-01T10:15:28;18.23;;;11.87;;
14235;SDS011;7202;50.718;7.072;2023-03-01T10:18:50;17.17;;;10.93;;
14235;SDS011;7202;50.718;7.072;2023-03-01T10:21:57;18.63;;;11.07;;
14235;SDS011;7202;50.718;7.072;2023-03-01T10:24:43;17.75;;;12.13;;
14235;SDS011;7202;50.718;7.072;2023-03-01T10:27:26;22.90;;;12.88;;
14235;SDS011;7202;50.718;7.072;2023-03-01T10:30:20;17.95;;;11.95;;
14235;SDS011;7202;50.718;7.072;2023-03-01T10:34:00;18.38;;;11.93;;
14235;SDS011;7202;50.718;7.072;2023-03-01T10:36:30;17.50;;;11.55;;
14235;SDS011;7202;50.718;7.072;2023-03-01T10:39:18;16.38;;;11.48;;
14235;SDS011;7202;50.718;7.072;2023-03-01T10:42:02;17.23;;;11.25;;
14235;SDS011;7202;50.718;7.072;2023-03-01T10:44:37;19.88;;;12.00;;
14235;SDS011;7202;50.718;7.072;2023-03-01T10:47:20;21.63;;;12.20;;
14235;SDS011;7202;50.718;7.072;2023-03-01T10:49:56;18.05;;;11.73;;
14235;SDS011;7202;50.718;7.072;2023-03-01T10:52:32;17.67;;;11.57;;
14235;SDS011;7202;50.718;7.072;2023-03-01T10:58:17;17.55;;;10.90;;
14235;SDS011;7202;50.718;7.072;2023-03-01T11:00:51;14.52;;;10.63;;
14235;SDS011;7202;50.718;7.072;2023-03-01T11:03:23;18.92;;;11.38;;
14235;SDS011;7202;50.718;7.072;2023-03-01T11:06:01;15.35;;;10.85;;
14235;SDS011;7202;50.718;7.072;2023-03-01T11:08:44;18.15;;;11.20;;
14235;SDS011;7202;50.718;7.072;2023-03-01T11:11:20;18.17;;;10.98;;
14235;SDS011;7202;50.718;7.072;2023-03-01T11:13:54;17.02;;;11.48;;
14235;SDS011;7202;50.718;7.072;2023-03-01T11:16:28;19.90;;;11.75;;
14235;SDS011;7202;50.718;7.072;2023-03-01T11:19:03;17.10;;;12.20;;
14235;SDS011;7202;50.718;7.072;2023-03-01T11:21:44;14.38;;;10.38;;
14235;SDS011;7202;50.718;7.072;2023-03-01T11:24:20;16.50;;;11.98;;
14235;SDS011;7202;50.718;7.072;2023-03-01T11:26:54;14.52;;;10.77;;
14235;SDS011;7202;50.718;7.072;2023-03-01T11:29:26;13.90;;;9.88;;
14235;SDS011;7202;50.718;7.072;2023-03-01T11:32:15;14.65;;;10.18;;
14235;SDS011;7202;50.718;7.072;2023-03-01T11:34:46;15.27;;;10.52;;
14235;SDS011;7202;50.718;7.072;2023-03-01T11:37:21;14.00;;;10.35;;
14235;SDS011;7202;50.718;7.072;2023-03-01T11:39:59;14.25;;;10.13;;
14235;SDS011;7202;50.718;7.072;2023-03-01T11:42:42;16.05;;;10.20;;
14235;SDS011;7202;50.718;7.072;2023-03-01T11:45:18;15.00;;;9.82;;
14235;SDS011;7202;50.718;7.072;2023-03-01T11:47:58;14.65;;;9.50;;
14235;SDS011;7202;50.718;7.072;2023-03-01T11:50:37;15.05;;;9.70;;
14235;SDS011;7202;50.718;7.072;2023-03-01T11:53:21;12.05;;;9.05;;
14235;SDS011;7202;50.718;7.072;2023-03-01T11:56:10;13.30;;;8.93;;
14235;SDS011;7202;50.718;7.072;2023-03-01T12:02:00;12.75;;;8.90;;
14235;SDS011;7202;50.718;7.072;2023-03-01T12:05:00;14.77;;;9.45;;
14235;SDS011;7202;50.718;7.072;2023-03-01T12:07:42;12.00;;;8.68;;
14235;SDS011;7202;50.718;7.072;2023-03-01T12:10:21;15.40;;;9.77;;
14235;SDS011;7202;50.718;7.072;2023-03-01T12:16:08;14.68;;;8.43;;
14235;SDS011;7202;50.718;7.072;2023-03-01T12:22:23;14.27;;;8.07;;
14235;SDS011;7202;50.718;7.072;2023-03-01T12:25:13;12.10;;;8.50;;
14235;SDS011;7202;50.718;7.072;2023-03-01T12:30:54;12.85;;;7.80;;
14235;SDS011;7202;50.718;7.072;2023-03-01T12:33:35;10.40;;;7.47;;
14235;SDS011;7202;50.718;7.072;2023-03-01T12:36:23;14.05;;;9.18;;
14235;SDS011;7202;50.718;7.072;2023-03-01T12:39:15;11.80;;;8.27;;
14235;SDS011;7202;50.718;7.072;2023-03-01T12:42:00;13.52;;;8.93;;
14235;SDS011;7202;50.718;7.072;2023-03-01T12:44:37;13.27;;;8.48;;
14235;SDS011;7202;50.718;7.072;2023-03-01T12:47:26;15.98;;;8.70;;
14235;SDS011;7202;50.718;7.072;2023-03-01T12:50:11;12.70;;;8.15;;
14235;SDS011;7202;50.718;7.072;2023-03-01T12:52:47;13.50;;;8.20;;
14235;SDS011;7202;50.718;7.072;2023-03-01T12:55:35;12.68;;;8.45;;
14235;SDS011;7202;50.718;7.072;2023-03-01T12:58:07;12.90;;;9.13;;
14235;SDS011;7202;50.718;7.072;2023-03-01T13:01:01;15.02;;;8.93;;
14235;SDS011;7202;50.718;7.072;2023-03-01T13:03:38;13.95;;;8.18;;
14235;SDS011;7202;50.718;7.072;2023-03-01T13:06:25;11.55;;;7.38;;
14235;SDS011;7202;50.718;7.072;2023-03-01T13:09:13;17.00;;;8.98;;
14235;SDS011;7202;50.718;7.072;2023-03-01T13:11:49;10.07;;;7.43;;
14235;SDS011;7202;50.718;7.072;2023-03-01T13:14:43;11.32;;;7.53;;
14235;SDS011;7202;50.718;7.072;2023-03-01T13:17:32;14.18;;;7.15;;
14235;SDS011;7202;50.718;7.072;2023-03-01T13:20:12;11.80;;;8.77;;
14235;SDS011;7202;50.718;7.072;2023-03-01T13:22:46;10.30;;;8.05;;
14235;SDS011;7202;50.718;7.072;2023-03-01T13:25:22;12.43;;;8.32;;
14235;SDS011;7202;50.718;7.072;2023-03-01T13:31:10;10.85;;;7.20;;
14235;SDS011;7202;50.718;7.072;2023-03-01T13:37:18;11.48;;;7.70;;
14235;SDS011;7202;50.718;7.072;2023-03-01T13:40:01;11.05;;;7.63;;
14235;SDS011;7202;50.718;7.072;2023-03-01T13:42:59;12.15;;;8.07;;
14235;SDS011;7202;50.718;7.072;2023-03-01T13:45:57;11.23;;;7.72;;
14235;SDS011;7202;50.718;7.072;2023-03-01T13:48:30;9.35;;;7.05;;
14235;SDS011;7202;50.718;7.072;2023-03-01T13:51:20;9.70;;;7.47;;
14235;SDS011;7202;50.718;7.072;2023-03-01T13:53:58;11.60;;;8.52;;
14235;SDS011;7202;50.718;7.072;2023-03-01T13:56:33;12.02;;;7.72;;
14235;SDS011;7202;50.718;7.072;2023-03-01T13:59:12;10.40;;;7.13;;
14235;SDS011;7202;50.718;7.072;2023-03-01T14:01:52;12.73;;;7.63;;
14235;SDS011;7202;50.718;7.072;2023-03-01T14:04:25;12.32;;;7.88;;
14235;SDS011;7202;50.718;7.072;2023-03-01T14:07:08;12.32;;;7.70;;
14235;SDS011;7202;50.718;7.072;2023-03-01T14:09:41;13.55;;;7.57;;
14235;SDS011;7202;50.718;7.072;2023-03-01T14:12:15;11.13;;;6.88;;
14235;SDS011;7202;50.718;7.072;2023-03-01T14:14:56;9.75;;;6.20;;
14235;SDS011;7202;50.718;7.072;2023-03-01T14:17:40;9.85;;;6.80;;
14235;SDS011;7202;50.718;7.072;2023-03-01T14:20:26;9.15;;;6.40;;
14235;SDS011;7202;50.718;7.072;2023-03-01T14:22:57;10.15;;;7.03;;
14235;SDS011;7202;50.718;7.072;2023-03-01T14:25:50;10.60;;;6.97;;
14235;SDS011;7202;50.718;7.072;2023-03-01T14:28:21;8.18;;;6.43;;
14235;SDS011;7202;50.718;7.072;2023-03-01T14:30:53;9.05;;;6.10;;
14235;SDS011;7202;50.718;7.072;2023-03-01T14:33:24;9.60;;;6.60;;
14235;SDS011;7202;50.718;7.072;2023-03-01T14:35:57;8.63;;;5.75;;
14235;SDS011;7202;50.718;7.072;2023-03-01T14:38:29;9.93;;;7.03;;
14235;SDS011;7202;50.718;7.072;2023-03-01T14:41:02;9.98;;;6.25;;
14235;SDS011;7202;50.718;7.072;2023-03-01T14:43:34;8.57;;;6.10;;
14235;SDS011;7202;50.718;7.072;2023-03-01T14:46:05;10.85;;;6.50;;
14235;SDS011;7202;50.718;7.072;2023-03-01T14:48:34;10.00;;;6.07;;
14235;SDS011;7202;50.718;7.072;2023-03-01T14:51:05;10.40;;;6.15;;
14235;SDS011;7202;50.718;7.072;2023-03-01T14:53:34;8.05;;;6.05;;
14235;SDS011;7202;50.718;7.072;2023-03-01T14:56:17;9.20;;;6.18;;
14235;SDS011;7202;50.718;7.072;2023-03-01T14:58:46;7.18;;;5.38;;
14235;SDS011;7202;50.718;7.072;2023-03-01T15:01:20;6.93;;;5.45;;
14235;SDS011;7202;50.718;7.072;2023-03-01T15:03:50;8.82;;;6.00;;
14235;SDS011;7202;50.718;7.072;2023-03-01T15:06:21;8.60;;;5.38;;
14235;SDS011;7202;50.718;7.072;2023-03-01T15:08:52;11.93;;;6.15;;
14235;SDS011;7202;50.718;7.072;2023-03-01T15:11:24;7.75;;;5.20;;
14235;SDS011;7202;50.718;7.072;2023-03-01T15:13:57;7.28;;;5.40;;
14235;SDS011;7202;50.718;7.072;2023-03-01T15:16:27;7.55;;;5.25;;
14235;SDS011;7202;50.718;7.072;2023-03-01T15:18:59;8.13;;;5.88;;
14235;SDS011;7202;50.718;7.072;2023-03-01T15:21:32;12.13;;;7.20;;
14235;SDS011;7202;50.718;7.072;2023-03-01T15:24:04;10.35;;;7.35;;
14235;SDS011;7202;50.718;7.072;2023-03-01T15:26:45;9.40;;;6.63;;
14235;SDS011;7202;50.718;7.072;2023-03-01T15:29:22;10.98;;;7.38;;
14235;SDS011;7202;50.718;7.072;2023-03-01T15:31:54;10.55;;;7.28;;
14235;SDS011;7202;50.718;7.072;2023-03-01T15:34:25;12.98;;;7.85;;
14235;SDS011;7202;50.718;7.072;2023-03-01T15:36:57;12.73;;;7.40;;
14235;SDS011;7202;50.718;7.072;2023-03-01T15:39:33;11.50;;;7.32;;
14235;SDS011;7202;50.718;7.072;2023-03-01T15:42:07;9.95;;;6.28;;
14235;SDS011;7202;50.718;7.072;2023-03-01T15:44:39;8.25;;;6.47;;
14235;SDS011;7202;50.718;7.072;2023-03-01T15:47:22;10.15;;;6.55;;
14235;SDS011;7202;50.718;7.072;2023-03-01T15:49:54;9.18;;;6.07;;
14235;SDS011;7202;50.718;7.072;2023-03-01T15:52:27;9.13;;;6.05;;